Airfield :







YOU CAN JOIN US ON...

 
LOGIN :

Register | Disclaimer

   EN    FR    IT 

 









Legend :    VFR   Marginal VFR   IFR   Intensive IFR   Very Intensive IFR
Visi :
Ceiling :
>= 8 km
>= 3000ft
5 to 8 km
1000 to 3000 ft
1500m to 5 km
500 to 1000 ft
800 to 1500m
200 to 500 ft
< 800m
< 200 ft
Symbols :   Thunderstorms  Fog  Heavy snow  Heavy precipitations  Wind > 20 kt






- Airport Elevation : 215 ft
- IATA code : XGR


CYLU - Kangiqsualujjuaq (Georges River)

CURRENT METAR :
  • 162100Z 32023G29KT 4SM -SN BLSN FEW015 SCT021 BKN026 OVC048 M04/M06 A2984 RMK ST2SC1SC3SC2 SLP112

EXPIRED METARs :
  • 162035Z 33023G29KT 4SM -SN BLSN FEW021 BKN027 BKN040 OVC052 M04/M06 A2983 RMK SC2SC3SC2SC1 SLP110
  • 162012Z 33021G30KT 2 1/2SM -SN BLSN BKN028 OVC037 M04/M06 A2982 RMK SC6SC2 SLP107
  • 162000Z 33023G29KT 12SM -SN DRSN BKN028 BKN037 OVC046 M04/M07 A2982 RMK SC5SC2SC1 SLP104
  • 161947Z 33020KT 10SM -SN DRSN BKN028 OVC037 M04/M08 A2981 RMK SC5SC3 SLP101
  • 161900Z 33021G27KT 13SM DRSN SCT027 BKN039 M04/M08 A2979 RMK SC3SC4 SLP097
  • 161840Z 33023G30KT 6SM DRSN SCT023 BKN027 OVC039 M04/M07 A2979 RMK SC3SC3SC2 SLP095
  • 161807Z CCA 34022G28KT 2 1/2SM DRSN BKN021 OVC029 M04/M06 A2978 RMK SC5SC3 VIS WNW 6 MILES SLP091

TAF N/A



MET'MAP, your aeronautical weather chart ! - Copyright ORBIFLY December 2007 - Disclaimer

ORBIFLY MET'MAP TEAM :

Programming & Development : Alexandra Zaïnal
Concept & Development : Baudouin d'Aumeries
Co-Development & Prog : Marc-Olivier Méhu
Technical & hardware support : Manuel Goepfert

Contact : metmap@orbifly.com




SOURCES & CREDITS :

   NOAA